createdAt,value
2019-02-05T00:00:50.260Z,104.67
2019-02-05T00:03:23.408Z,114.23
2019-02-05T00:05:55.429Z,116.53
2019-02-05T00:08:27.070Z,74.80
2019-02-05T00:11:00.030Z,46.57
2019-02-05T00:13:31.533Z,53.57
2019-02-05T00:16:04.475Z,154.27
2019-02-05T00:18:36.039Z,137.07
2019-02-05T00:21:08.806Z,73.23
2019-02-05T00:23:40.784Z,24.63
2019-02-05T00:26:12.529Z,97.40
2019-02-05T00:28:48.420Z,84.13
2019-02-05T00:31:20.120Z,72.90
2019-02-05T00:33:52.736Z,37.60
2019-02-05T00:36:24.422Z,47.77
2019-02-05T00:38:55.961Z,117.10
2019-02-05T00:41:27.957Z,180.03
2019-02-05T00:43:59.551Z,83.13
2019-02-05T00:46:31.410Z,105.10
2019-02-05T00:49:03.032Z,127.33
2019-02-05T00:51:34.579Z,151.27
2019-02-05T00:54:07.582Z,172.57
2019-02-05T00:56:39.411Z,150.50
2019-02-05T00:59:11.500Z,256.87
2019-02-05T01:01:45.351Z,120.13
2019-02-05T01:04:17.888Z,100.80
2019-02-05T01:06:49.531Z,116.07
2019-02-05T01:09:21.089Z,142.40
2019-02-05T01:11:53.031Z,196.87
2019-02-05T01:14:24.719Z,117.53
2019-02-05T01:16:57.639Z,242.60
2019-02-05T01:19:29.773Z,161.77
2019-02-05T01:22:01.415Z,282.67
2019-02-05T01:24:33.010Z,126.47
2019-02-05T01:27:06.819Z,146.97
2019-02-05T01:29:38.291Z,98.23
2019-02-05T01:32:11.714Z,132.50
2019-02-05T01:34:44.179Z,60.50
2019-02-05T01:37:15.691Z,199.97
2019-02-05T01:39:49.678Z,83.70
2019-02-05T01:42:21.491Z,93.77
2019-02-05T01:44:53.572Z,338.67
2019-02-05T01:47:28.250Z,141.77
2019-02-05T01:49:59.794Z,157.40
2019-02-05T01:52:31.339Z,204.40
2019-02-05T01:55:04.680Z,235.70
2019-02-05T01:57:36.204Z,160.17
2019-02-05T02:00:10.650Z,135.57
2019-02-05T02:02:42.360Z,108.93
2019-02-05T02:05:16.467Z,270.20
2019-02-05T02:07:48.642Z,97.90
2019-02-05T02:10:22.934Z,166.80
2019-02-05T02:12:55.482Z,140.00
2019-02-05T02:15:27.146Z,133.57
2019-02-05T02:17:58.715Z,64.07
2019-02-05T02:20:30.411Z,87.77
2019-02-05T02:23:02.318Z,237.90
2019-02-05T02:25:34.134Z,139.90
2019-02-05T02:28:07.289Z,112.63
2019-02-05T02:30:40.636Z,110.30
2019-02-05T02:33:12.331Z,83.17
2019-02-05T02:35:43.955Z,105.33
2019-02-05T02:38:16.868Z,116.80
2019-02-05T02:40:48.675Z,165.53
2019-02-05T02:43:20.342Z,72.37
2019-02-05T02:45:51.973Z,82.63
2019-02-05T02:48:24.092Z,231.13
2019-02-05T02:50:55.859Z,179.87
2019-02-05T02:53:27.861Z,242.53
2019-02-05T02:55:59.530Z,103.63
2019-02-05T02:58:31.151Z,214.40
2019-02-05T03:01:02.677Z,110.70
2019-02-05T03:03:34.391Z,190.80
2019-02-05T03:06:06.278Z,237.57
2019-02-05T03:08:38.984Z,264.17
2019-02-05T03:11:10.730Z,368.67
2019-02-05T03:13:42.358Z,248.27
2019-02-05T03:16:13.989Z,201.23
2019-02-05T03:18:45.572Z,153.57
2019-02-05T03:21:17.301Z,98.93
2019-02-05T03:23:50.576Z,173.83
2019-02-05T03:26:22.351Z,201.53
2019-02-05T03:28:55.700Z,208.93
2019-02-05T03:31:27.259Z,168.47
2019-02-05T03:33:58.918Z,327.73
2019-02-05T03:36:33.408Z,336.87
2019-02-05T03:39:06.262Z,450.73
2019-02-05T03:41:37.760Z,351.77
2019-02-05T03:44:09.809Z,156.60
2019-02-05T03:46:41.330Z,111.03
2019-02-05T03:49:13.243Z,148.10
2019-02-05T03:52:14.580Z,156.47
2019-02-05T03:55:20.497Z,125.03
2019-02-05T03:58:41.428Z,254.30
2019-02-05T04:01:46.881Z,231.57
2019-02-05T04:04:49.719Z,373.80
2019-02-05T04:08:32.100Z,259.60
2019-02-05T04:11:36.759Z,371.33
2019-02-05T04:15:18.796Z,98.00
2019-02-05T04:18:29.999Z,231.23
2019-02-05T04:21:41.289Z,449.47
2019-02-05T04:24:38.516Z,270.63
2019-02-05T04:27:46.894Z,506.63
2019-02-05T04:30:43.256Z,210.57
2019-02-05T04:33:54.328Z,147.73
2019-02-05T04:36:52.919Z,129.10
2019-02-05T04:40:05.861Z,256.23
2019-02-05T04:43:14.322Z,267.80
2019-02-05T04:46:37.579Z,248.33
2019-02-05T04:49:52.169Z,170.97
2019-02-05T04:52:49.310Z,165.03
2019-02-05T04:55:53.692Z,344.97
2019-02-05T04:59:10.439Z,215.73
2019-02-05T05:02:26.363Z,277.67
2019-02-05T05:05:11.121Z,391.53
2019-02-05T05:08:30.918Z,318.37
2019-02-05T05:11:02.628Z,264.07
2019-02-05T05:13:34.764Z,252.90
2019-02-05T05:16:06.372Z,228.57
2019-02-05T05:18:38.149Z,271.40
2019-02-05T05:21:09.684Z,236.73
2019-02-05T05:23:41.358Z,222.20
2019-02-05T05:26:12.836Z,312.77
2019-02-05T05:28:45.859Z,191.67
2019-02-05T05:31:17.418Z,109.63
2019-02-05T05:33:49.043Z,302.03
2019-02-05T05:36:20.558Z,348.73
2019-02-05T05:38:52.025Z,170.93
2019-02-05T05:41:23.889Z,118.90
2019-02-05T05:43:55.662Z,209.67
2019-02-05T05:46:27.312Z,177.97
2019-02-05T05:48:58.908Z,311.20
2019-02-05T05:51:30.576Z,308.87
2019-02-05T05:54:02.381Z,172.83
2019-02-05T05:56:34.028Z,148.63
2019-02-05T05:59:05.493Z,129.03
2019-02-05T06:01:37.057Z,136.50
2019-02-05T06:04:08.751Z,64.87
2019-02-05T06:06:40.352Z,103.93
2019-02-05T06:09:11.859Z,134.37
2019-02-05T06:11:43.414Z,54.63
2019-02-05T06:14:14.939Z,91.87
2019-02-05T06:16:46.529Z,57.47
2019-02-05T06:19:19.193Z,47.73
2019-02-05T06:21:50.712Z,71.27
2019-02-05T06:24:22.309Z,100.40
2019-02-05T06:26:53.838Z,130.50
2019-02-05T06:29:25.464Z,119.27
2019-02-05T06:31:57.199Z,140.80
2019-02-05T06:34:28.952Z,115.73
2019-02-05T06:37:00.576Z,74.47
2019-02-05T06:39:32.146Z,148.13
2019-02-05T06:42:03.699Z,66.50
2019-02-05T06:44:35.230Z,88.27
2019-02-05T06:47:07.079Z,127.87
2019-02-05T06:49:38.568Z,113.37
2019-02-05T06:52:10.099Z,74.07
2019-02-05T06:54:41.757Z,64.57
2019-02-05T06:57:13.461Z,71.17
2019-02-05T06:59:45.006Z,81.70
2019-02-05T07:02:16.632Z,60.27
2019-02-05T07:04:48.252Z,80.17
2019-02-05T07:07:19.803Z,42.50
2019-02-05T07:09:51.313Z,39.50
2019-02-05T07:12:22.929Z,53.90
2019-02-05T07:14:54.810Z,35.27
2019-02-05T07:17:26.284Z,43.40
2019-02-05T07:19:57.933Z,41.60
2019-02-05T07:22:30.099Z,29.87
2019-02-05T07:25:01.597Z,33.27
2019-02-05T07:27:33.558Z,36.73
2019-02-05T07:30:06.475Z,34.03
2019-02-05T07:32:38.344Z,32.53
2019-02-05T07:35:10.027Z,37.50
2019-02-05T07:37:42.314Z,29.47
2019-02-05T07:40:15.783Z,29.53
2019-02-05T07:42:47.230Z,29.53
2019-02-05T07:45:21.400Z,36.80
2019-02-05T07:47:52.998Z,24.63
2019-02-05T07:50:26.360Z,39.40
2019-02-05T07:52:57.848Z,33.77
2019-02-05T07:55:29.737Z,32.93
2019-02-05T07:58:01.358Z,26.87
2019-02-05T08:00:33.084Z,26.87
2019-02-05T08:03:05.258Z,26.27
2019-02-05T08:05:37.393Z,25.77
2019-02-05T08:08:09.480Z,24.67
2019-02-05T08:10:41.436Z,23.03
2019-02-05T08:13:12.972Z,22.47
2019-02-05T08:15:44.642Z,25.90
2019-02-05T08:18:16.371Z,24.53
2019-02-05T08:20:47.858Z,22.43
2019-02-05T08:23:19.481Z,20.40
2019-02-05T08:25:51.112Z,21.27
2019-02-05T08:28:22.699Z,23.87
2019-02-05T08:30:54.459Z,17.50
2019-02-05T08:33:26.065Z,15.47
2019-02-05T09:17:42.670Z,13.00
2019-02-05T09:20:17.578Z,13.93
2019-02-05T09:22:51.264Z,9.30
2019-02-05T09:25:26.033Z,11.10
2019-02-05T09:28:00.955Z,10.50
2019-02-05T09:30:35.078Z,10.97
2019-02-05T09:33:13.612Z,11.17
2019-02-05T09:35:52.734Z,9.03
2019-02-05T09:38:25.850Z,7.70
2019-02-05T09:41:03.356Z,6.53
2019-02-05T09:43:37.946Z,6.10
2019-02-05T09:46:13.636Z,6.70
2019-02-05T09:48:46.464Z,7.67
2019-02-05T09:51:19.943Z,6.87
2019-02-05T09:53:51.456Z,6.50
2019-02-05T09:56:26.140Z,5.43
2019-02-05T09:59:00.928Z,6.20
2019-02-05T10:01:37.175Z,7.27
2019-02-05T10:04:14.548Z,5.83
2019-02-05T10:06:50.103Z,7.00
2019-02-05T10:09:23.415Z,5.13
2019-02-05T10:11:59.696Z,6.10
2019-02-05T10:14:33.006Z,4.67
2019-02-05T10:17:06.186Z,4.57
2019-02-05T10:19:40.222Z,5.00
2019-02-05T10:22:11.756Z,4.40
2019-02-05T10:24:45.825Z,4.33
2019-02-05T10:27:23.611Z,4.30
2019-02-05T10:29:59.633Z,5.27
2019-02-05T10:32:33.134Z,4.30
2019-02-05T10:35:08.729Z,4.10
2019-02-05T10:37:43.153Z,4.23
2019-02-05T10:40:14.815Z,4.67
2019-02-05T10:42:49.568Z,5.50
2019-02-05T10:45:25.524Z,3.27
2019-02-05T10:47:58.517Z,4.07
2019-02-05T10:50:31.744Z,4.67
2019-02-05T10:53:05.364Z,6.53
2019-02-05T10:55:36.923Z,6.97
2019-02-05T10:58:10.946Z,4.03
2019-02-05T11:00:48.531Z,5.00
2019-02-05T11:03:21.596Z,4.30
2019-02-05T11:05:57.212Z,4.20
2019-02-05T11:08:42.417Z,3.87
2019-02-05T11:11:16.468Z,6.23
2019-02-05T11:13:48.138Z,4.87
2019-02-05T11:16:19.885Z,4.87
2019-02-05T11:18:53.512Z,5.23
2019-02-05T11:21:25.349Z,5.60
2019-02-05T11:24:00.404Z,4.73
2019-02-05T11:26:33.176Z,6.00
2019-02-05T11:29:04.751Z,5.07
2019-02-05T11:31:37.349Z,5.47
2019-02-05T11:34:25.236Z,4.30
2019-02-05T11:36:56.975Z,5.73
2019-02-05T11:39:32.462Z,4.00
2019-02-05T11:42:04.722Z,4.70
2019-02-05T11:44:36.928Z,6.13
2019-02-05T11:47:08.936Z,4.67
2019-02-05T11:49:43.722Z,4.97
2019-02-05T11:52:16.422Z,5.00
2019-02-05T11:54:50.358Z,4.37
2019-02-05T11:57:22.027Z,6.17
2019-02-05T12:00:00.867Z,6.57
2019-02-05T12:02:36.508Z,7.83
2019-02-05T12:05:11.001Z,6.67
2019-02-05T12:07:45.224Z,4.47
2019-02-05T12:10:17.995Z,9.13
2019-02-05T12:12:49.565Z,7.13
2019-02-05T12:15:21.708Z,6.87
2019-02-05T12:17:53.646Z,11.33
2019-02-05T12:20:30.039Z,8.57
2019-02-05T12:23:02.875Z,7.40
2019-02-05T12:25:35.041Z,7.93
2019-02-05T12:28:07.454Z,6.23
2019-02-05T12:30:45.430Z,11.43
2019-02-05T12:33:20.146Z,6.70
2019-02-05T12:35:54.776Z,6.10
2019-02-05T12:38:31.535Z,6.87
2019-02-05T12:41:10.735Z,5.53
2019-02-05T12:43:45.844Z,10.23
2019-02-05T12:46:19.116Z,7.83
2019-02-05T12:48:50.714Z,5.93
2019-02-05T12:51:24.056Z,7.13
2019-02-05T12:53:56.816Z,7.33
2019-02-05T12:56:30.714Z,6.87
2019-02-05T12:59:03.723Z,7.07
2019-02-05T13:01:39.073Z,7.17
2019-02-05T13:04:10.355Z,9.30
2019-02-05T13:06:42.016Z,11.20
2019-02-05T13:09:14.103Z,6.83
2019-02-05T13:11:45.614Z,9.13
2019-02-05T13:14:18.895Z,9.17
2019-02-05T13:16:50.427Z,7.07
2019-02-05T13:19:22.007Z,10.97
2019-02-05T13:21:55.746Z,16.87
2019-02-05T13:24:27.374Z,10.30
2019-02-05T13:26:59.066Z,9.83
2019-02-05T13:29:30.728Z,13.97
2019-02-05T13:32:02.214Z,11.20
2019-02-05T13:34:33.653Z,8.67
2019-02-05T13:37:05.427Z,11.53
2019-02-05T13:39:38.475Z,9.43
2019-02-05T13:42:13.364Z,8.40
2019-02-05T13:44:45.133Z,9.33
2019-02-05T13:47:16.720Z,9.17
2019-02-05T13:49:48.176Z,9.20
2019-02-05T13:52:19.754Z,10.47
2019-02-05T13:54:51.314Z,12.07
2019-02-05T13:57:25.106Z,8.90
2019-02-05T13:59:56.649Z,8.83
2019-02-05T14:02:28.275Z,11.10
2019-02-05T14:04:59.956Z,12.20
2019-02-05T14:07:31.641Z,11.77
2019-02-05T14:10:06.135Z,11.73
2019-02-05T14:12:37.725Z,13.07
2019-02-05T14:15:10.666Z,12.50
2019-02-05T14:17:42.176Z,11.13
2019-02-05T14:20:14.310Z,13.17
2019-02-05T14:22:46.166Z,13.60
2019-02-05T14:25:17.876Z,12.63
2019-02-05T14:27:51.023Z,11.53
2019-02-05T14:30:26.558Z,14.07
2019-02-05T14:32:58.125Z,10.93
2019-02-05T14:35:29.676Z,10.03
2019-02-05T14:38:02.497Z,13.17
2019-02-05T14:40:33.917Z,13.97
2019-02-05T14:43:09.576Z,14.50
2019-02-05T14:45:45.149Z,10.07
2019-02-05T14:48:21.616Z,18.00
2019-02-05T14:50:54.361Z,14.43
2019-02-05T14:53:31.795Z,17.10
2019-02-05T14:56:23.327Z,14.17
2019-02-05T14:58:59.229Z,14.00
2019-02-05T15:01:30.829Z,13.33
2019-02-05T15:04:03.906Z,12.53
2019-02-05T15:06:35.389Z,48.87
2019-02-05T15:09:08.306Z,26.10
2019-02-05T15:11:42.259Z,17.33
2019-02-05T15:14:15.299Z,24.23
2019-02-05T15:16:47.055Z,20.93
2019-02-05T15:19:18.563Z,44.77
2019-02-05T15:21:52.545Z,43.60
2019-02-05T15:24:24.148Z,22.63
2019-02-05T15:26:55.628Z,26.03
2019-02-05T15:29:27.384Z,26.00
2019-02-05T15:31:59.075Z,30.97
2019-02-05T15:34:35.441Z,29.00
2019-02-05T15:37:06.872Z,22.27
2019-02-05T15:39:38.547Z,22.47
2019-02-05T15:42:10.091Z,20.33
2019-02-05T15:44:41.757Z,22.50
2019-02-05T15:47:13.343Z,26.30
2019-02-05T15:49:46.233Z,21.37
2019-02-05T15:52:18.776Z,20.60
2019-02-05T15:54:50.386Z,20.83
2019-02-05T15:57:21.916Z,20.70
2019-02-05T15:59:53.394Z,24.53
2019-02-05T16:02:25.413Z,22.63
2019-02-05T16:04:58.657Z,24.17
2019-02-05T16:07:30.465Z,23.97
2019-02-05T16:10:02.035Z,22.47
2019-02-05T16:12:33.586Z,22.80
2019-02-05T16:15:06.770Z,24.80
2019-02-05T16:17:39.269Z,29.57
2019-02-05T16:20:11.995Z,27.63
2019-02-05T16:22:43.635Z,28.33
2019-02-05T16:25:15.558Z,25.20
2019-02-05T16:27:47.162Z,26.50
2019-02-05T16:30:21.734Z,26.27
2019-02-05T16:32:53.325Z,28.10
2019-02-05T16:35:25.985Z,41.73
2019-02-05T16:37:57.675Z,42.20
2019-02-05T16:40:33.511Z,30.07
2019-02-05T16:43:05.865Z,45.50
2019-02-05T16:45:38.893Z,30.03
2019-02-05T16:48:10.466Z,30.63
2019-02-05T16:50:47.964Z,30.10
2019-02-05T16:53:19.191Z,33.60
2019-02-05T16:55:58.463Z,37.13
2019-02-05T16:58:30.214Z,33.20
2019-02-05T17:01:01.813Z,31.90
2019-02-05T17:03:33.441Z,32.27
2019-02-05T17:06:05.406Z,35.40
2019-02-05T17:08:36.953Z,34.67
2019-02-05T17:11:08.470Z,35.43
2019-02-05T17:13:40.023Z,29.60
2019-02-05T17:16:11.781Z,30.40
2019-02-05T17:18:43.357Z,31.23
2019-02-05T17:21:14.877Z,30.80
2019-02-05T17:23:46.626Z,30.70
2019-02-05T17:26:18.100Z,33.87
2019-02-05T17:28:49.705Z,31.80
2019-02-05T17:31:21.294Z,30.97
2019-02-05T17:33:52.785Z,34.90
2019-02-05T17:36:24.440Z,39.10
2019-02-05T17:38:56.098Z,32.73
2019-02-05T17:41:27.735Z,34.67
2019-02-05T17:43:59.385Z,28.93
2019-02-05T17:46:31.046Z,34.07
2019-02-05T17:49:02.637Z,37.77
2019-02-05T17:51:34.274Z,35.77
2019-02-05T17:54:06.898Z,33.60
2019-02-05T17:56:38.423Z,42.30
2019-02-05T17:59:09.979Z,38.97
2019-02-05T18:01:41.666Z,35.47
2019-02-05T18:04:13.264Z,41.43
2019-02-05T18:06:44.778Z,40.50
2019-02-05T18:09:16.304Z,34.67
2019-02-05T18:11:47.807Z,36.03
2019-02-05T18:14:19.356Z,37.00
2019-02-05T18:16:51.540Z,36.00
2019-02-05T18:19:23.485Z,35.73
2019-02-05T18:21:55.039Z,39.87
2019-02-05T18:24:26.521Z,42.27
2019-02-05T18:26:58.532Z,35.90
2019-02-05T18:29:30.048Z,33.27
2019-02-05T18:32:01.602Z,38.57
2019-02-05T18:34:33.215Z,42.63
2019-02-05T18:37:04.882Z,38.27
2019-02-05T18:39:36.411Z,34.87
2019-02-05T18:42:08.525Z,35.87
2019-02-05T18:44:40.114Z,41.20
2019-02-05T18:47:14.284Z,39.00
2019-02-05T18:49:44.875Z,42.13
2019-02-05T18:52:16.596Z,51.47
2019-02-05T18:54:48.191Z,44.13
2019-02-05T18:57:19.827Z,44.23
2019-02-05T18:59:51.454Z,64.77
2019-02-05T19:02:23.115Z,47.70
2019-02-05T19:04:54.745Z,44.40
2019-02-05T19:07:26.516Z,51.40
2019-02-05T19:09:58.034Z,39.80
2019-02-05T19:12:29.650Z,34.60
2019-02-05T19:15:01.107Z,33.23
2019-02-05T19:17:34.056Z,33.90
2019-02-05T19:20:06.418Z,42.87
2019-02-05T19:22:37.967Z,39.83
2019-02-05T19:25:27.241Z,43.97
2019-02-05T19:27:58.845Z,34.27
2019-02-05T19:30:34.735Z,40.63
2019-02-05T19:33:06.850Z,35.00
2019-02-05T19:35:42.445Z,32.60
2019-02-05T19:38:13.993Z,33.23
2019-02-05T19:40:57.169Z,34.40
2019-02-05T19:43:23.592Z,34.10
2019-02-05T19:46:16.520Z,30.23
2019-02-05T19:49:21.124Z,41.57
2019-02-05T19:51:43.258Z,36.77
2019-02-05T19:54:15.124Z,35.77
2019-02-05T19:56:46.751Z,39.33
2019-02-05T19:59:18.985Z,38.23
2019-02-05T20:01:50.565Z,38.30
2019-02-05T20:04:22.186Z,37.17
2019-02-05T20:06:53.985Z,41.07
2019-02-05T20:09:25.724Z,34.67
2019-02-05T20:11:57.395Z,34.57
2019-02-05T20:14:29.141Z,46.03
2019-02-05T20:17:03.148Z,39.20
2019-02-05T20:19:50.204Z,38.53
2019-02-05T20:22:30.759Z,39.50
2019-02-05T20:25:02.315Z,41.57
2019-02-05T20:27:35.545Z,37.73
2019-02-05T20:30:08.495Z,39.00
2019-02-05T20:32:40.066Z,37.87
2019-02-05T20:35:11.622Z,42.33
2019-02-05T20:37:43.284Z,39.13
2019-02-05T20:40:19.865Z,41.57
2019-02-05T20:42:51.581Z,52.83
2019-02-05T20:45:32.016Z,40.80
2019-02-05T20:48:03.704Z,44.17
2019-02-05T20:50:35.516Z,237.97
2019-02-05T20:53:13.997Z,74.17
2019-02-05T20:55:48.466Z,268.70
2019-02-05T20:58:21.393Z,96.40
2019-02-05T21:00:58.306Z,340.20
2019-02-05T21:03:29.927Z,279.97
2019-02-05T21:06:01.436Z,505.97
2019-02-05T21:08:33.042Z,263.90
2019-02-05T21:11:04.798Z,146.17
2019-02-05T21:13:36.363Z,404.10
2019-02-05T21:16:08.545Z,368.30
2019-02-05T21:18:40.017Z,258.77
2019-02-05T21:21:11.698Z,752.93
2019-02-05T21:23:43.289Z,716.87
2019-02-05T21:26:15.085Z,451.20
2019-02-05T21:28:47.295Z,793.57
2019-02-05T21:31:18.973Z,501.63
2019-02-05T21:33:50.654Z,235.03
2019-02-05T21:36:22.246Z,129.27
2019-02-05T21:38:53.973Z,204.77
2019-02-05T21:41:25.504Z,735.77
2019-02-05T21:43:57.103Z,494.03
2019-02-05T21:46:28.628Z,753.03
2019-02-05T21:49:00.335Z,510.97
2019-02-05T21:51:40.600Z,420.27
2019-02-05T21:54:05.690Z,260.30
2019-02-05T21:56:37.245Z,811.70
2019-02-05T21:59:08.788Z,273.30
2019-02-05T22:01:40.451Z,281.30
2019-02-05T22:04:12.059Z,209.40
2019-02-05T22:06:43.799Z,413.33
2019-02-05T22:09:15.747Z,184.43
2019-02-05T22:11:47.383Z,288.70
2019-02-05T22:14:19.582Z,92.57
2019-02-05T22:16:51.133Z,131.63
2019-02-05T22:19:23.225Z,94.37
2019-02-05T22:21:55.155Z,296.23
2019-02-05T22:24:26.755Z,101.90
2019-02-05T22:26:58.406Z,244.53
2019-02-05T22:29:29.976Z,509.43
2019-02-05T22:32:01.534Z,251.33
2019-02-05T22:34:39.275Z,95.20
2019-02-05T22:37:06.355Z,217.13
2019-02-05T22:39:38.593Z,131.03
2019-02-05T22:42:10.170Z,207.93
2019-02-05T22:44:41.845Z,76.93
2019-02-05T22:47:13.247Z,132.53
2019-02-05T22:49:44.855Z,99.60
2019-02-05T22:52:16.356Z,107.63
2019-02-05T22:54:47.967Z,123.23
2019-02-05T22:57:19.623Z,59.20
2019-02-05T22:59:51.256Z,96.00
2019-02-05T23:02:22.886Z,112.97
2019-02-05T23:05:08.553Z,42.90
2019-02-05T23:07:40.133Z,113.07
2019-02-05T23:10:30.099Z,66.13
2019-02-05T23:13:09.365Z,148.77
2019-02-05T23:15:43.873Z,263.37
2019-02-05T23:18:15.867Z,159.23
2019-02-05T23:20:49.530Z,207.40
2019-02-05T23:23:22.246Z,189.30
2019-02-05T23:25:55.175Z,308.03
2019-02-05T23:28:26.818Z,275.83
2019-02-05T23:30:58.447Z,191.63
2019-02-05T23:33:30.135Z,197.23
2019-02-05T23:36:01.779Z,155.57
2019-02-05T23:38:33.762Z,61.03
2019-02-05T23:41:05.462Z,218.00
2019-02-05T23:43:37.077Z,232.23
2019-02-05T23:46:08.726Z,181.47
2019-02-05T23:48:40.226Z,103.47
2019-02-05T23:51:11.909Z,53.87
2019-02-05T23:53:43.545Z,293.93
2019-02-05T23:56:25.327Z,356.53
2019-02-05T23:58:48.713Z,348.93
